RYR50PU LFML-EGSS
Flight info
| Callsign | RYR50PU |
|---|---|
| Flight time | N/A |
| Altitude | 36000 |
| Route | ETREK DCT MADOT/N0446F380 DCT MOPEM DCT CACHI DCT AVLON DCT OKRIX DCT BRY DCT CLM DCT KOPOR DCT SOSUN DCT SUBIP UM733 BANVA |
| Aircraft | B738/M-SDE3FGILRWY/SB1 |
Departure
| Time | 2026-05-06 10:00 |
|---|---|
| Airport | Marseille Provence Airport (LFML) |
Arrival
| Time | N/A |
|---|---|
| Airport | London Stansted Airport (EGSS) |
| Time | Latitude | Longitude | Altitude | Speed | Heading |
|---|---|---|---|---|---|
| 2026-05-06 09:22 | 43.44316 | 5.21749 | 28 ft | 0 kts | 235° |
| 2026-05-06 09:52 | 43.44316 | 5.21748 | 28 ft | 1 kts | 236° |
| 2026-05-06 09:53 | 43.44313 | 5.21728 | 27 ft | 4 kts | 268° |
| 2026-05-06 09:53 | 43.44312 | 5.21675 | 27 ft | 7 kts | 249° |
| 2026-05-06 09:53 | 43.44276 | 5.21626 | 27 ft | 8 kts | 225° |
| 2026-05-06 09:53 | 43.44235 | 5.21568 | 27 ft | 8 kts | 224° |
| 2026-05-06 09:54 | 43.44194 | 5.21513 | 27 ft | 8 kts | 224° |
| 2026-05-06 09:54 | 43.44153 | 5.21460 | 27 ft | 8 kts | 224° |
| 2026-05-06 09:54 | 43.44114 | 5.21408 | 27 ft | 8 kts | 224° |
| 2026-05-06 09:54 | 43.44075 | 5.21359 | 27 ft | 7 kts | 214° |
| 2026-05-06 09:55 | 43.44024 | 5.21360 | 28 ft | 7 kts | 160° |
| 2026-05-06 09:55 | 43.43984 | 5.21397 | 29 ft | 7 kts | 136° |
| 2026-05-06 09:55 | 43.43948 | 5.21449 | 31 ft | 8 kts | 131° |
| 2026-05-06 09:55 | 43.43923 | 5.21521 | 32 ft | 9 kts | 90° |
| 2026-05-06 09:56 | 43.43954 | 5.21599 | 33 ft | 10 kts | 44° |
| 2026-05-06 09:56 | 43.43976 | 5.21693 | 33 ft | 12 kts | 106° |
| 2026-05-06 09:56 | 43.43926 | 5.21778 | 36 ft | 11 kts | 134° |
| 2026-05-06 09:56 | 43.43872 | 5.21856 | 36 ft | 12 kts | 133° |
| 2026-05-06 09:57 | 43.43809 | 5.21946 | 39 ft | 14 kts | 134° |
| 2026-05-06 09:57 | 43.43724 | 5.22040 | 43 ft | 17 kts | 148° |
| 2026-05-06 09:57 | 43.43615 | 5.22129 | 46 ft | 19 kts | 151° |
| 2026-05-06 09:57 | 43.43500 | 5.22219 | 48 ft | 19 kts | 150° |
| 2026-05-06 09:58 | 43.43386 | 5.22291 | 51 ft | 18 kts | 165° |
| 2026-05-06 09:58 | 43.43287 | 5.22387 | 54 ft | 17 kts | 133° |
| 2026-05-06 09:58 | 43.43198 | 5.22496 | 55 ft | 17 kts | 157° |
| 2026-05-06 09:58 | 43.43093 | 5.22477 | 57 ft | 15 kts | 205° |
| 2026-05-06 09:59 | 43.43066 | 5.22368 | 57 ft | 14 kts | 306° |
| 2026-05-06 09:59 | 43.43143 | 5.22253 | 57 ft | 29 kts | 314° |
| 2026-05-06 09:59 | 43.43464 | 5.21797 | 45 ft | 103 kts | 314° |
| 2026-05-06 09:59 | 43.44118 | 5.20872 | 46 ft | 161 kts | 315° |
| 2026-05-06 10:00 | 43.44915 | 5.19746 | 716 ft | 163 kts | 314° |
| 2026-05-06 10:00 | 43.45718 | 5.18601 | 1468 ft | 170 kts | 315° |
| 2026-05-06 10:00 | 43.46546 | 5.17440 | 2206 ft | 173 kts | 313° |
| 2026-05-06 10:00 | 43.47364 | 5.16288 | 3014 ft | 167 kts | 314° |
| 2026-05-06 10:01 | 43.48195 | 5.15111 | 3657 ft | 180 kts | 314° |
| 2026-05-06 10:01 | 43.49128 | 5.13785 | 3922 ft | 208 kts | 313° |
| 2026-05-06 10:01 | 43.50190 | 5.12243 | 4217 ft | 232 kts | 313° |
| 2026-05-06 10:01 | 43.51341 | 5.10568 | 4562 ft | 257 kts | 313° |
| 2026-05-06 10:02 | 43.52610 | 5.08749 | 5188 ft | 266 kts | 313° |
| 2026-05-06 10:02 | 43.53903 | 5.06902 | 6100 ft | 266 kts | 314° |
| 2026-05-06 10:02 | 43.55201 | 5.05045 | 6940 ft | 271 kts | 313° |
| 2026-05-06 10:02 | 43.56510 | 5.03173 | 7732 ft | 275 kts | 313° |
| 2026-05-06 10:03 | 43.57837 | 5.01276 | 8521 ft | 278 kts | 313° |
| 2026-05-06 10:03 | 43.59195 | 4.99352 | 9294 ft | 281 kts | 313° |
| 2026-05-06 10:03 | 43.60568 | 4.97411 | 10058 ft | 284 kts | 312° |
| 2026-05-06 10:03 | 43.61989 | 4.95400 | 10462 ft | 302 kts | 312° |
| 2026-05-06 10:04 | 43.63497 | 4.93260 | 10725 ft | 322 kts | 311° |
| 2026-05-06 10:04 | 43.65090 | 4.91001 | 11288 ft | 330 kts | 311° |
| 2026-05-06 10:04 | 43.66687 | 4.88743 | 12073 ft | 332 kts | 312° |
| 2026-05-06 10:04 | 43.68579 | 4.86846 | 12792 ft | 342 kts | 332° |
| 2026-05-06 10:05 | 43.70859 | 4.85776 | 13538 ft | 348 kts | 340° |
| 2026-05-06 10:05 | 43.73200 | 4.84869 | 14206 ft | 355 kts | 341° |
| 2026-05-06 10:05 | 43.75611 | 4.83969 | 14893 ft | 360 kts | 341° |
| 2026-05-06 10:05 | 43.78016 | 4.83067 | 15605 ft | 363 kts | 341° |
| 2026-05-06 10:06 | 43.80469 | 4.82132 | 16319 ft | 367 kts | 340° |
| 2026-05-06 10:06 | 43.82926 | 4.81181 | 16966 ft | 372 kts | 340° |
| 2026-05-06 10:06 | 43.85440 | 4.80198 | 17607 ft | 376 kts | 340° |
| 2026-05-06 10:06 | 43.87961 | 4.79207 | 18237 ft | 380 kts | 340° |
| 2026-05-06 10:07 | 43.90530 | 4.78195 | 18874 ft | 384 kts | 339° |
| 2026-05-06 10:07 | 43.93135 | 4.77167 | 19459 ft | 389 kts | 339° |
| 2026-05-06 10:07 | 43.95721 | 4.76145 | 19985 ft | 395 kts | 339° |
| 2026-05-06 10:07 | 43.98394 | 4.75088 | 20548 ft | 399 kts | 338° |
| 2026-05-06 10:08 | 44.01103 | 4.74066 | 21091 ft | 405 kts | 340° |
| 2026-05-06 10:08 | 44.03866 | 4.73174 | 21628 ft | 410 kts | 342° |
| 2026-05-06 10:08 | 44.06646 | 4.72341 | 22143 ft | 415 kts | 342° |
| 2026-05-06 10:08 | 44.09532 | 4.71493 | 22629 ft | 420 kts | 342° |
| 2026-05-06 10:09 | 44.12378 | 4.70650 | 23095 ft | 424 kts | 342° |
| 2026-05-06 10:09 | 44.15292 | 4.69775 | 23573 ft | 428 kts | 341° |
| 2026-05-06 10:09 | 44.18184 | 4.68897 | 24025 ft | 432 kts | 341° |
| 2026-05-06 10:09 | 44.21147 | 4.67988 | 24475 ft | 435 kts | 341° |
| 2026-05-06 10:10 | 44.24130 | 4.67069 | 24926 ft | 439 kts | 341° |
| 2026-05-06 10:10 | 44.27085 | 4.66155 | 25364 ft | 441 kts | 341° |
| 2026-05-06 10:10 | 44.30116 | 4.65216 | 25770 ft | 445 kts | 341° |
| 2026-05-06 10:10 | 44.33154 | 4.64274 | 26147 ft | 449 kts | 341° |
| 2026-05-06 10:11 | 44.36227 | 4.63320 | 26551 ft | 452 kts | 341° |
| 2026-05-06 10:11 | 44.39277 | 4.62374 | 26970 ft | 454 kts | 341° |
| 2026-05-06 10:11 | 44.42368 | 4.61415 | 27359 ft | 456 kts | 341° |
| 2026-05-06 10:11 | 44.45482 | 4.60446 | 27699 ft | 460 kts | 341° |
| 2026-05-06 10:12 | 44.48626 | 4.59466 | 28016 ft | 464 kts | 341° |
| 2026-05-06 10:12 | 44.51765 | 4.58487 | 28387 ft | 466 kts | 341° |
| 2026-05-06 10:12 | 44.54942 | 4.57496 | 28728 ft | 468 kts | 341° |
| 2026-05-06 10:12 | 44.58103 | 4.56508 | 29025 ft | 470 kts | 341° |
| 2026-05-06 10:13 | 44.61328 | 4.55500 | 29353 ft | 473 kts | 341° |
| 2026-05-06 10:13 | 44.64531 | 4.54496 | 29632 ft | 476 kts | 341° |
| 2026-05-06 10:13 | 44.67866 | 4.53836 | 29893 ft | 490 kts | 355° |
| 2026-05-06 10:13 | 44.71300 | 4.54321 | 30207 ft | 497 kts | 4° |
| 2026-05-06 10:14 | 44.74688 | 4.55046 | 30581 ft | 498 kts | 5° |
| 2026-05-06 10:14 | 44.78122 | 4.55805 | 31009 ft | 496 kts | 5° |
| 2026-05-06 10:14 | 44.81535 | 4.56541 | 31447 ft | 494 kts | 5° |
| 2026-05-06 10:14 | 44.84894 | 4.57236 | 31861 ft | 492 kts | 4° |
| 2026-05-06 10:15 | 44.88289 | 4.57913 | 32236 ft | 492 kts | 4° |
| 2026-05-06 10:15 | 44.91694 | 4.58577 | 32579 ft | 491 kts | 4° |
| 2026-05-06 10:15 | 44.95084 | 4.59235 | 32968 ft | 490 kts | 4° |
| 2026-05-06 10:15 | 44.98430 | 4.59883 | 33317 ft | 489 kts | 4° |
| 2026-05-06 10:16 | 45.01814 | 4.60542 | 33654 ft | 488 kts | 4° |
| 2026-05-06 10:16 | 45.05154 | 4.61196 | 33986 ft | 487 kts | 4° |
| 2026-05-06 10:16 | 45.08522 | 4.61857 | 34312 ft | 487 kts | 4° |
| 2026-05-06 10:16 | 45.11886 | 4.62518 | 34645 ft | 485 kts | 5° |
| 2026-05-06 10:17 | 45.15185 | 4.63167 | 34996 ft | 483 kts | 5° |
| 2026-05-06 10:17 | 45.18520 | 4.63757 | 35309 ft | 479 kts | 359° |
| 2026-05-06 10:17 | 45.21830 | 4.63472 | 35544 ft | 472 kts | 347° |
| 2026-05-06 10:17 | 45.25030 | 4.62726 | 35858 ft | 469 kts | 345° |
| 2026-05-06 10:18 | 45.31491 | 4.61066 | 35946 ft | 474 kts | 346° |
| 2026-05-06 10:18 | 45.37956 | 4.59488 | 35929 ft | 471 kts | 346° |
| 2026-05-06 10:19 | 45.44422 | 4.57995 | 35936 ft | 467 kts | 347° |
| 2026-05-06 10:19 | 45.50812 | 4.56532 | 35935 ft | 467 kts | 347° |
| 2026-05-06 10:20 | 45.57203 | 4.55061 | 35940 ft | 467 kts | 347° |
| 2026-05-06 10:20 | 45.63627 | 4.53575 | 35934 ft | 468 kts | 347° |
| 2026-05-06 10:21 | 45.70114 | 4.52070 | 36096 ft | 475 kts | 347° |
| 2026-05-06 10:21 | 45.73365 | 4.51317 | 36273 ft | 476 kts | 347° |
| 2026-05-06 10:21 | 45.76651 | 4.50554 | 36530 ft | 475 kts | 347° |
| 2026-05-06 10:22 | 45.79868 | 4.49807 | 36889 ft | 470 kts | 347° |
| 2026-05-06 10:22 | 45.83087 | 4.49061 | 37413 ft | 463 kts | 347° |
| 2026-05-06 10:22 | 45.86265 | 4.48321 | 37718 ft | 460 kts | 347° |
| 2026-05-06 10:22 | 45.89444 | 4.47578 | 37841 ft | 461 kts | 347° |
| 2026-05-06 10:23 | 45.95703 | 4.46110 | 37936 ft | 466 kts | 347° |
| 2026-05-06 10:23 | 46.02099 | 4.44609 | 37925 ft | 466 kts | 347° |
| 2026-05-06 10:24 | 46.08517 | 4.43102 | 37933 ft | 465 kts | 347° |
| 2026-05-06 10:24 | 46.14876 | 4.41606 | 37931 ft | 464 kts | 347° |
| 2026-05-06 10:25 | 46.21224 | 4.40106 | 37916 ft | 463 kts | 347° |
| 2026-05-06 10:25 | 46.27609 | 4.38596 | 37912 ft | 462 kts | 347° |
| 2026-05-06 10:26 | 46.33874 | 4.36673 | 37911 ft | 460 kts | 343° |
| 2026-05-06 10:26 | 46.40051 | 4.34422 | 37915 ft | 459 kts | 342° |
| 2026-05-06 10:27 | 46.46266 | 4.32163 | 37916 ft | 459 kts | 343° |
| 2026-05-06 10:27 | 46.52440 | 4.29970 | 37909 ft | 459 kts | 343° |
| 2026-05-06 10:28 | 46.58654 | 4.27778 | 37910 ft | 460 kts | 343° |
| 2026-05-06 10:28 | 46.64864 | 4.25584 | 37906 ft | 460 kts | 343° |
| 2026-05-06 10:29 | 46.71085 | 4.23381 | 37906 ft | 460 kts | 343° |
| 2026-05-06 10:29 | 46.77337 | 4.21159 | 37908 ft | 461 kts | 343° |
| 2026-05-06 10:30 | 46.83525 | 4.18956 | 37900 ft | 461 kts | 343° |
| 2026-05-06 10:30 | 46.89780 | 4.16723 | 37897 ft | 461 kts | 343° |
| 2026-05-06 10:31 | 46.96016 | 4.14492 | 37901 ft | 462 kts | 343° |
| 2026-05-06 10:31 | 47.02243 | 4.12258 | 37893 ft | 462 kts | 343° |
| 2026-05-06 10:32 | 47.08429 | 4.09765 | 37880 ft | 459 kts | 336° |
| 2026-05-06 10:32 | 47.14328 | 4.06287 | 37884 ft | 457 kts | 334° |
| 2026-05-06 10:33 | 47.20218 | 4.02708 | 37880 ft | 457 kts | 335° |
| 2026-05-06 10:33 | 47.26093 | 3.99188 | 37877 ft | 456 kts | 335° |
| 2026-05-06 10:34 | 47.31968 | 3.95695 | 37885 ft | 455 kts | 335° |
| 2026-05-06 10:34 | 47.37852 | 3.92196 | 37888 ft | 454 kts | 335° |
| 2026-05-06 10:35 | 47.43688 | 3.88713 | 37880 ft | 454 kts | 335° |
| 2026-05-06 10:35 | 47.48550 | 3.85803 | 37881 ft | 453 kts | 335° |
| 2026-05-06 10:36 | 47.54389 | 3.82303 | 37884 ft | 452 kts | 335° |
| 2026-05-06 10:36 | 47.60211 | 3.78806 | 37882 ft | 452 kts | 335° |
| 2026-05-06 10:37 | 47.66064 | 3.75284 | 37876 ft | 451 kts | 335° |
| 2026-05-06 10:37 | 47.71874 | 3.71778 | 37882 ft | 451 kts | 335° |
| 2026-05-06 10:38 | 47.77682 | 3.68263 | 37886 ft | 451 kts | 335° |
| 2026-05-06 10:38 | 47.83483 | 3.64745 | 37887 ft | 451 kts | 335° |
| 2026-05-06 10:39 | 47.89290 | 3.61215 | 37892 ft | 452 kts | 335° |
| 2026-05-06 10:39 | 47.95130 | 3.57657 | 37891 ft | 452 kts | 335° |
| 2026-05-06 10:40 | 48.00949 | 3.54096 | 37894 ft | 453 kts | 335° |
| 2026-05-06 10:40 | 48.06751 | 3.50528 | 37892 ft | 453 kts | 335° |
| 2026-05-06 10:41 | 48.12578 | 3.46936 | 37888 ft | 453 kts | 335° |
| 2026-05-06 10:41 | 48.18426 | 3.43323 | 37887 ft | 454 kts | 335° |
| 2026-05-06 10:42 | 48.24245 | 3.39720 | 37889 ft | 454 kts | 335° |
| 2026-05-06 10:42 | 48.30074 | 3.36100 | 37890 ft | 453 kts | 335° |
| 2026-05-06 10:43 | 48.35908 | 3.32469 | 37898 ft | 453 kts | 335° |
| 2026-05-06 10:44 | 48.44637 | 3.26994 | 37898 ft | 453 kts | 335° |
| 2026-05-06 10:44 | 48.50450 | 3.23279 | 37899 ft | 452 kts | 335° |
| 2026-05-06 10:45 | 48.56237 | 3.19571 | 37899 ft | 452 kts | 335° |
| 2026-05-06 10:45 | 48.62015 | 3.15865 | 37897 ft | 452 kts | 335° |
| 2026-05-06 10:46 | 48.67790 | 3.12154 | 37897 ft | 452 kts | 335° |
| 2026-05-06 10:46 | 48.73562 | 3.08437 | 37910 ft | 451 kts | 335° |
| 2026-05-06 10:47 | 48.79357 | 3.04694 | 37905 ft | 451 kts | 335° |
| 2026-05-06 10:47 | 48.85088 | 3.00912 | 37903 ft | 450 kts | 331° |
| 2026-05-06 10:48 | 48.89689 | 2.97066 | 37911 ft | 449 kts | 328° |
| 2026-05-06 10:48 | 48.95084 | 2.92225 | 37909 ft | 448 kts | 328° |
| 2026-05-06 10:49 | 49.00456 | 2.87426 | 37905 ft | 449 kts | 328° |
| 2026-05-06 10:49 | 49.05840 | 2.82673 | 37909 ft | 448 kts | 328° |
| 2026-05-06 10:50 | 49.11263 | 2.77896 | 37906 ft | 448 kts | 328° |
| 2026-05-06 10:50 | 49.16658 | 2.73136 | 37908 ft | 448 kts | 328° |
| 2026-05-06 10:51 | 49.22045 | 2.68366 | 37911 ft | 448 kts | 328° |
| 2026-05-06 10:51 | 49.27423 | 2.63593 | 37910 ft | 448 kts | 328° |
| 2026-05-06 10:52 | 49.32842 | 2.58771 | 37914 ft | 448 kts | 328° |
| 2026-05-06 10:52 | 49.38215 | 2.53976 | 37921 ft | 448 kts | 328° |
| 2026-05-06 10:53 | 49.43590 | 2.49167 | 37916 ft | 448 kts | 328° |
| 2026-05-06 10:53 | 49.48959 | 2.44343 | 37917 ft | 447 kts | 326° |
| 2026-05-06 10:54 | 49.53672 | 2.38171 | 37911 ft | 442 kts | 308° |